Time;durP1;ratioP1;P1;durP2;ratioP2;P2;SDS_P1;SDS_P2;PMS_P1;PMS_P2;Temp;Humidity;BMP_temperature;BMP_pressure;BME280_temperature;BME280_humidity;BME280_pressure;Samples;Min_cycle;Max_cycle;Signal;HPM_P1;HPM_P2
2022/03/26 00:00:00;;;;;;;35.98;19.92;;;6.70;86.70;;;;;;1905116;75;21006;-48
2022/03/26 00:02:29;;;;;;;36.40;19.20;;;6.70;86.70;;;;;;1905025;75;21003;-49
2022/03/26 00:04:58;;;;;;;39.35;20.80;;;6.80;86.80;;;;;;1905110;75;21023;-49
2022/03/26 00:07:28;;;;;;;40.95;20.82;;;6.80;86.80;;;;;;1905001;75;21019;-48
2022/03/26 00:09:57;;;;;;;39.30;20.12;;;6.80;86.60;;;;;;1904978;75;21113;-47
2022/03/26 00:12:27;;;;;;;41.73;20.80;;;6.70;86.30;;;;;;1905115;75;21046;-47
2022/03/26 00:14:58;;;;;;;39.88;20.57;;;6.70;86.50;;;;;;1905071;75;21096;-48
2022/03/26 00:17:27;;;;;;;39.90;21.35;;;6.70;86.60;;;;;;1904965;75;21023;-48
2022/03/26 00:19:56;;;;;;;41.40;20.32;;;6.60;86.60;;;;;;1905048;75;21006;-49
2022/03/26 00:22:26;;;;;;;48.90;21.00;;;6.60;86.50;;;;;;1904946;75;21461;-49
2022/03/26 00:24:55;;;;;;;43.10;21.68;;;6.50;86.80;;;;;;1904945;75;21027;-48
2022/03/26 00:27:24;;;;;;;37.48;20.02;;;6.50;86.80;;;;;;1905079;75;21026;-47
2022/03/26 00:29:53;;;;;;;43.30;21.25;;;6.40;86.60;;;;;;1904972;75;21159;-47
2022/03/26 00:32:23;;;;;;;47.03;20.90;;;6.40;86.80;;;;;;1905065;75;21135;-47
2022/03/26 00:34:52;;;;;;;47.23;21.85;;;6.40;86.90;;;;;;1904968;75;21121;-51
2022/03/26 00:37:22;;;;;;;44.20;21.33;;;6.40;86.90;;;;;;1904975;75;21006;-50
2022/03/26 00:39:51;;;;;;;40.55;19.80;;;6.40;87.10;;;;;;1905005;75;21066;-47
2022/03/26 00:42:21;;;;;;;43.85;21.73;;;6.40;87.00;;;;;;1904952;75;21027;-49
2022/03/26 00:44:50;;;;;;;46.55;21.50;;;6.40;87.10;;;;;;1904943;75;21055;-48
2022/03/26 00:47:19;;;;;;;45.25;21.02;;;6.40;87.00;;;;;;1905074;75;21104;-48
2022/03/26 00:49:48;;;;;;;37.80;18.73;;;6.40;86.80;;;;;;1904982;75;21033;-48
2022/03/26 00:52:18;;;;;;;45.25;21.40;;;6.40;86.90;;;;;;1905042;75;21031;-48
2022/03/26 00:54:47;;;;;;;46.73;20.57;;;6.30;87.00;;;;;;1905049;75;21034;-47
2022/03/26 00:57:17;;;;;;;42.65;21.42;;;6.30;87.20;;;;;;1905029;75;21027;-48
2022/03/26 00:59:46;;;;;;;44.30;20.95;;;6.40;87.40;;;;;;1905036;75;21030;-47
2022/03/26 01:02:17;;;;;;;40.35;19.75;;;6.40;87.30;;;;;;1904888;75;21042;-48
2022/03/26 01:04:46;;;;;;;44.58;21.87;;;6.40;87.20;;;;;;1905031;75;21019;-47
2022/03/26 01:07:15;;;;;;;40.63;19.95;;;6.50;87.40;;;;;;1905090;75;21050;-47
2022/03/26 01:09:45;;;;;;;48.80;23.42;;;6.50;87.40;;;;;;1905002;75;21031;-48
2022/03/26 01:12:14;;;;;;;51.35;23.27;;;6.60;87.40;;;;;;1905068;75;21093;-48
2022/03/26 01:14:44;;;;;;;50.92;23.57;;;6.60;87.20;;;;;;1904936;75;21074;-47
2022/03/26 01:17:13;;;;;;;41.35;20.57;;;6.60;87.30;;;;;;1904926;75;21131;-47
2022/03/26 01:19:43;;;;;;;47.35;20.55;;;6.70;87.10;;;;;;1912490;74;21054;-48
2022/03/26 01:22:12;;;;;;;41.60;21.50;;;6.70;87.30;;;;;;1904867;75;21010;-48
2022/03/26 01:24:41;;;;;;;45.17;20.95;;;6.70;87.40;;;;;;1904904;75;21027;-48
2022/03/26 01:27:10;;;;;;;43.10;19.85;;;6.70;87.40;;;;;;1904956;75;21058;-48
2022/03/26 01:29:40;;;;;;;49.88;24.90;;;6.80;87.50;;;;;;1905011;75;21026;-47
2022/03/26 01:32:11;;;;;;;46.23;22.07;;;6.80;87.50;;;;;;1905165;75;21085;-47
2022/03/26 01:34:40;;;;;;;50.23;21.62;;;6.80;87.10;;;;;;1905057;75;21003;-47
2022/03/26 01:37:10;;;;;;;45.65;20.88;;;6.80;87.30;;;;;;1905242;75;21027;-47
2022/03/26 01:39:39;;;;;;;52.35;23.32;;;6.80;87.20;;;;;;1905251;75;21031;-48
2022/03/26 01:42:08;;;;;;;53.52;24.47;;;6.80;87.30;;;;;;1905128;75;21006;-49
2022/03/26 01:44:39;;;;;;;49.67;22.58;;;6.80;87.30;;;;;;1905160;75;21112;-47
2022/03/26 01:47:08;;;;;;;47.95;22.45;;;6.80;87.20;;;;;;1905291;75;21031;-47
2022/03/26 01:49:38;;;;;;;58.05;24.63;;;6.80;87.40;;;;;;1905280;75;21113;-47
2022/03/26 01:52:10;;;;;;;56.25;24.43;;;6.80;87.50;;;;;;1905265;75;21031;-49
2022/03/26 01:54:41;;;;;;;62.30;23.30;;;6.70;87.30;;;;;;1905311;75;21080;-48
2022/03/26 01:57:11;;;;;;;55.15;24.72;;;6.70;87.30;;;;;;1905157;75;21026;-47
2022/03/26 01:59:42;;;;;;;52.67;23.25;;;6.70;87.20;;;;;;1905259;75;21124;-48
2022/03/26 02:02:11;;;;;;;55.40;23.42;;;6.60;87.20;;;;;;1905232;75;21117;-49
2022/03/26 02:04:41;;;;;;;59.55;23.92;;;6.50;86.90;;;;;;1905201;75;21030;-48
2022/03/26 02:07:10;;;;;;;57.27;23.22;;;6.40;87.00;;;;;;1905181;75;21085;-47
2022/03/26 02:09:39;;;;;;;60.25;21.97;;;6.40;87.20;;;;;;1905013;75;21007;-47
2022/03/26 02:12:29;;;;;;;46.13;19.65;;;6.50;87.50;;;;;;1905173;75;21117;-48
2022/03/26 02:14:59;;;;;;;51.05;21.10;;;6.40;88.00;;;;;;1905177;75;21022;-48
2022/03/26 02:17:29;;;;;;;45.73;19.77;;;6.30;87.40;;;;;;1905143;75;21027;-48
2022/03/26 02:19:59;;;;;;;49.63;22.13;;;6.30;87.20;;;;;;1905019;75;21092;-47
2022/03/26 02:22:29;;;;;;;49.55;20.48;;;6.30;88.10;;;;;;1905138;75;21097;-49
2022/03/26 02:24:59;;;;;;;44.53;19.92;;;6.30;87.60;;;;;;1905092;75;21081;-47
2022/03/26 02:27:31;;;;;;;47.03;22.60;;;6.40;87.60;;;;;;1905072;75;21007;-48
2022/03/26 02:30:00;;;;;;;52.15;22.80;;;6.30;87.50;;;;;;1905041;75;21034;-48
2022/03/26 02:32:30;;;;;;;54.40;22.15;;;6.30;87.40;;;;;;1905075;75;21058;-49
2022/03/26 02:34:59;;;;;;;52.98;22.87;;;6.30;88.00;;;;;;1905151;75;21027;-47
2022/03/26 02:37:29;;;;;;;52.67;22.15;;;6.30;88.10;;;;;;1904985;75;21101;-48
2022/03/26 02:39:58;;;;;;;52.43;23.32;;;6.30;87.70;;;;;;1904981;75;21027;-48
2022/03/26 02:42:27;;;;;;;42.60;19.55;;;6.30;88.10;;;;;;1905064;75;21030;-47
2022/03/26 02:44:57;;;;;;;48.55;20.23;;;6.30;87.70;;;;;;1905115;75;21043;-48
2022/03/26 02:47:26;;;;;;;54.90;24.07;;;6.40;88.10;;;;;;1905146;75;21003;-48
2022/03/26 02:49:56;;;;;;;52.30;22.73;;;6.40;88.10;;;;;;1905076;75;21092;-48
2022/03/26 02:52:26;;;;;;;59.85;24.50;;;6.40;87.70;;;;;;1905007;75;21026;-47
2022/03/26 02:54:55;;;;;;;46.88;23.27;;;6.40;88.00;;;;;;1905093;75;21031;-47
2022/03/26 02:57:25;;;;;;;51.58;23.55;;;6.40;87.60;;;;;;1905073;75;21086;-47
2022/03/26 02:59:55;;;;;;;52.70;24.30;;;6.30;87.60;;;;;;1905085;75;21046;-47
2022/03/26 03:02:25;;;;;;;47.17;21.48;;;6.30;87.70;;;;;;1904990;75;21070;-47
2022/03/26 03:04:54;;;;;;;45.17;19.65;;;6.30;87.90;;;;;;1905126;75;21094;-49
2022/03/26 03:07:23;;;;;;;43.60;20.02;;;6.40;87.80;;;;;;1905026;75;21030;-47
2022/03/26 03:09:52;;;;;;;42.88;19.27;;;6.40;87.90;;;;;;1905032;75;21105;-48
2022/03/26 03:12:22;;;;;;;45.00;19.67;;;6.50;88.20;;;;;;1907681;75;21116;-47
2022/03/26 03:14:51;;;;;;;38.95;17.90;;;6.60;88.10;;;;;;1905079;75;21034;-50
2022/03/26 03:17:21;;;;;;;41.08;20.92;;;6.60;88.30;;;;;;1905120;75;21023;-48
2022/03/26 03:19:50;;;;;;;40.35;18.82;;;6.70;88.40;;;;;;1905023;75;21089;-47
2022/03/26 03:22:19;;;;;;;42.25;19.77;;;6.80;88.40;;;;;;1907415;75;21026;-48
2022/03/26 03:24:49;;;;;;;42.05;19.35;;;6.80;88.10;;;;;;1905076;75;21006;-48
2022/03/26 03:27:18;;;;;;;40.33;19.23;;;6.80;88.00;;;;;;1905106;75;21023;-47
2022/03/26 03:29:47;;;;;;;53.38;19.50;;;6.80;88.00;;;;;;1904980;75;21030;-47
2022/03/26 03:32:17;;;;;;;51.25;24.40;;;6.80;88.10;;;;;;1905159;75;21035;-48
2022/03/26 03:34:46;;;;;;;47.08;21.17;;;6.80;88.00;;;;;;1904976;75;21092;-48
2022/03/26 03:37:15;;;;;;;47.83;22.65;;;6.80;87.80;;;;;;1905123;75;21171;-47
2022/03/26 03:39:45;;;;;;;43.10;20.32;;;6.70;87.80;;;;;;1905100;75;21077;-47
2022/03/26 03:42:14;;;;;;;39.10;18.87;;;6.70;88.00;;;;;;1904998;75;21047;-47
2022/03/26 03:44:43;;;;;;;47.90;21.82;;;6.70;88.10;;;;;;1905098;75;21100;-47
2022/03/26 03:47:13;;;;;;;48.15;21.48;;;6.80;88.30;;;;;;1905116;75;21037;-47
2022/03/26 03:49:43;;;;;;;51.58;21.52;;;6.80;88.00;;;;;;1905117;75;21011;-48
2022/03/26 03:52:12;;;;;;;46.80;21.85;;;6.70;87.60;;;;;;1904961;75;21101;-47
2022/03/26 03:54:41;;;;;;;49.33;22.65;;;6.70;87.60;;;;;;1905014;75;21011;-47
2022/03/26 03:57:11;;;;;;;45.15;22.30;;;6.70;87.60;;;;;;1904987;75;21031;-46
2022/03/26 03:59:41;;;;;;;50.78;24.20;;;6.60;87.50;;;;;;1904987;75;21030;-47
2022/03/26 04:02:10;;;;;;;50.00;23.35;;;6.50;87.90;;;;;;1906857;75;21088;-48
2022/03/26 04:04:41;;;;;;;46.70;21.87;;;6.40;87.70;;;;;;1905079;75;21108;-48
2022/03/26 04:07:11;;;;;;;46.00;20.92;;;6.40;87.80;;;;;;1905089;75;21038;-47
2022/03/26 04:09:40;;;;;;;53.95;21.68;;;6.40;87.90;;;;;;1905037;75;21112;-47
2022/03/26 04:12:11;;;;;;;51.05;23.65;;;6.40;88.10;;;;;;1905103;75;21104;-48
2022/03/26 04:14:43;;;;;;;43.28;21.75;;;6.40;88.00;;;;;;1905000;75;21022;-47
2022/03/26 04:17:17;;;;;;;46.20;23.30;;;6.40;88.00;;;;;;1904821;75;21484;-48
2022/03/26 04:19:43;;;;;;;37.95;19.25;;;6.40;88.10;;;;;;1903662;75;21028;-50
2022/03/26 04:22:12;;;;;;;44.83;19.95;;;6.40;88.20;;;;;;1904975;75;21066;-48
2022/03/26 04:24:42;;;;;;;43.08;19.02;;;6.60;88.50;;;;;;1904924;75;21031;-47
2022/03/26 04:27:11;;;;;;;43.23;19.75;;;6.60;88.40;;;;;;1904953;75;21026;-47
2022/03/26 04:29:40;;;;;;;41.35;19.98;;;6.70;88.50;;;;;;1904871;75;21085;-49
2022/03/26 04:32:13;;;;;;;40.03;20.23;;;6.70;88.50;;;;;;1904851;75;21030;-47
2022/03/26 04:34:42;;;;;;;38.48;18.90;;;6.80;88.50;;;;;;1904891;75;21038;-48
2022/03/26 04:37:12;;;;;;;43.30;20.32;;;6.90;88.70;;;;;;1904969;75;21027;-47
2022/03/26 04:39:41;;;;;;;44.27;21.80;;;6.90;88.40;;;;;;1904957;75;21026;-48
2022/03/26 04:42:11;;;;;;;42.27;21.05;;;6.90;88.10;;;;;;1904838;75;21055;-46
2022/03/26 04:44:40;;;;;;;36.88;18.17;;;6.90;88.00;;;;;;1904872;75;21029;-50
2022/03/26 04:47:10;;;;;;;47.03;20.95;;;6.90;88.20;;;;;;1904863;75;21031;-49
2022/03/26 04:49:39;;;;;;;43.08;20.27;;;6.80;88.30;;;;;;1904857;75;21024;-49
2022/03/26 04:52:08;;;;;;;42.30;20.00;;;6.80;88.30;;;;;;1904961;75;21027;-48
2022/03/26 04:54:38;;;;;;;37.33;16.75;;;6.90;88.40;;;;;;1904999;75;21010;-48
2022/03/26 04:57:08;;;;;;;43.58;19.87;;;6.90;88.40;;;;;;1904888;75;21042;-48
2022/03/26 04:59:37;;;;;;;43.92;19.85;;;6.90;88.60;;;;;;1904869;75;21035;-48
2022/03/26 05:02:06;;;;;;;43.95;17.80;;;7.00;88.70;;;;;;1909398;75;21026;-50
2022/03/26 05:04:35;;;;;;;40.52;18.52;;;7.00;88.80;;;;;;1905027;75;21042;-49
2022/03/26 05:07:45;;;;;;;41.35;17.80;;;7.10;88.80;;;;;;1905173;75;20998;-49
2022/03/26 05:09:36;;;;;;;42.62;17.05;;;7.10;88.70;;;;;;1901053;75;20999;-49
2022/03/26 05:12:06;;;;;;;32.42;15.72;;;7.10;88.50;;;;;;1905156;75;21069;-48
2022/03/26 05:14:36;;;;;;;40.20;18.10;;;7.20;88.60;;;;;;1905103;75;21094;-50
2022/03/26 05:17:10;;;;;;;37.83;18.35;;;7.20;88.40;;;;;;1905020;75;21023;-50
2022/03/26 05:19:36;;;;;;;39.67;18.95;;;7.20;88.40;;;;;;1904291;75;21093;-49
2022/03/26 05:22:05;;;;;;;39.55;17.87;;;7.10;88.50;;;;;;1904993;75;21082;-49
2022/03/26 05:24:35;;;;;;;40.33;18.17;;;7.20;88.30;;;;;;1905110;75;21011;-51
2022/03/26 05:27:04;;;;;;;38.42;18.07;;;7.10;88.20;;;;;;1905162;75;21023;-49
2022/03/26 05:29:33;;;;;;;40.67;18.62;;;7.10;88.30;;;;;;1905271;75;21085;-48
2022/03/26 05:32:04;;;;;;;35.65;17.05;;;7.10;88.40;;;;;;1905085;75;21022;-49
2022/03/26 05:34:33;;;;;;;41.50;18.10;;;7.10;88.60;;;;;;1904953;75;21039;-48
2022/03/26 05:37:04;;;;;;;38.23;20.68;;;7.20;88.70;;;;;;1905027;75;21030;-49
2022/03/26 05:39:34;;;;;;;40.15;17.57;;;7.20;88.70;;;;;;1905018;75;21477;-48
2022/03/26 05:42:03;;;;;;;39.70;18.17;;;7.20;88.60;;;;;;1905091;75;21094;-49
2022/03/26 05:44:33;;;;;;;34.90;15.90;;;7.30;88.50;;;;;;1905033;75;21089;-49
2022/03/26 05:47:02;;;;;;;37.63;19.17;;;7.40;88.30;;;;;;1904970;75;21466;-48
2022/03/26 05:49:31;;;;;;;34.83;17.75;;;7.40;88.10;;;;;;1905025;75;21183;-48
2022/03/26 05:52:00;;;;;;;41.13;18.73;;;7.40;87.70;;;;;;1905134;75;21023;-49
2022/03/26 05:54:30;;;;;;;38.23;16.93;;;7.40;87.80;;;;;;1905013;75;20999;-49
2022/03/26 05:56:59;;;;;;;34.43;18.02;;;7.40;87.70;;;;;;1904993;75;21019;-48
2022/03/26 05:59:30;;;;;;;39.48;16.90;;;7.40;87.90;;;;;;1905005;75;21042;-49
2022/03/26 06:01:59;;;;;;;36.28;16.90;;;7.50;87.90;;;;;;1905024;75;20999;-48
2022/03/26 06:04:28;;;;;;;37.48;17.95;;;7.50;87.90;;;;;;1904953;75;21023;-50
2022/03/26 06:06:59;;;;;;;46.85;19.92;;;7.60;87.80;;;;;;1905163;75;21027;-49
2022/03/26 06:09:28;;;;;;;34.58;16.32;;;7.60;86.60;;;;;;1905112;75;21031;-49
2022/03/26 06:11:57;;;;;;;34.88;19.50;;;7.60;87.10;;;;;;1904999;75;21031;-50
2022/03/26 06:14:27;;;;;;;37.08;18.23;;;7.60;86.60;;;;;;1904932;75;21125;-48
2022/03/26 06:16:56;;;;;;;39.53;18.57;;;7.60;86.80;;;;;;1905134;75;21168;-49
2022/03/26 06:19:26;;;;;;;33.83;19.05;;;7.50;86.30;;;;;;1905046;75;21784;-49
2022/03/26 06:21:55;;;;;;;37.08;17.77;;;7.50;86.00;;;;;;1904967;75;21010;-49
2022/03/26 06:24:25;;;;;;;40.30;19.00;;;7.40;86.60;;;;;;1904971;75;21413;-50
2022/03/26 06:26:54;;;;;;;34.55;18.75;;;7.40;86.60;;;;;;1905117;75;21019;-49
2022/03/26 06:29:24;;;;;;;42.50;20.17;;;7.40;86.80;;;;;;1905123;75;20999;-48
2022/03/26 06:31:53;;;;;;;38.15;18.82;;;7.40;86.70;;;;;;1904998;75;21023;-49
2022/03/26 06:34:24;;;;;;;38.05;19.60;;;7.40;86.40;;;;;;1905083;75;21026;-52
2022/03/26 06:36:53;;;;;;;33.48;18.35;;;7.30;86.40;;;;;;1904954;75;21129;-51
2022/03/26 06:39:22;;;;;;;42.08;19.90;;;7.30;87.10;;;;;;1905152;75;21034;-48
2022/03/26 06:41:53;;;;;;;35.15;19.23;;;7.30;86.80;;;;;;1905105;75;21003;-49
2022/03/26 06:44:22;;;;;;;36.15;17.35;;;7.30;86.20;;;;;;1904945;75;21100;-49
2022/03/26 06:46:52;;;;;;;36.77;19.37;;;7.40;86.50;;;;;;1904887;75;21042;-50
2022/03/26 06:49:21;;;;;;;37.55;20.08;;;7.30;86.20;;;;;;1905081;75;21163;-49
2022/03/26 06:51:51;;;;;;;39.65;19.35;;;7.30;85.90;;;;;;1905108;75;21066;-48
2022/03/26 06:54:20;;;;;;;37.70;20.05;;;7.20;86.40;;;;;;1904994;75;21030;-49
2022/03/26 06:56:50;;;;;;;40.73;20.15;;;7.20;86.30;;;;;;1905084;75;21007;-49
2022/03/26 06:59:21;;;;;;;36.90;18.57;;;7.30;86.20;;;;;;1904961;75;21120;-49
2022/03/26 07:01:50;;;;;;;39.73;19.80;;;7.20;86.50;;;;;;1904973;75;21006;-49
2022/03/26 07:04:19;;;;;;;38.02;20.37;;;7.20;86.60;;;;;;1905236;75;21102;-49
2022/03/26 07:06:48;;;;;;;42.75;21.17;;;7.30;86.70;;;;;;1905068;75;21026;-48
2022/03/26 07:09:18;;;;;;;43.50;20.20;;;7.30;86.50;;;;;;1904970;75;21081;-48
2022/03/26 07:11:48;;;;;;;37.58;18.42;;;7.30;86.20;;;;;;1904974;75;21023;-49
2022/03/26 07:14:17;;;;;;;49.80;22.00;;;7.30;86.60;;;;;;1905047;75;21070;-49
2022/03/26 07:16:46;;;;;;;42.00;18.65;;;7.30;86.40;;;;;;1904979;75;21144;-49
2022/03/26 07:19:15;;;;;;;35.98;18.82;;;7.40;86.50;;;;;;1904932;75;21031;-49
2022/03/26 07:21:45;;;;;;;42.53;20.35;;;7.50;86.50;;;;;;1904906;75;21058;-50
2022/03/26 07:24:15;;;;;;;39.35;19.27;;;7.60;85.60;;;;;;1905056;75;21108;-50
2022/03/26 07:26:44;;;;;;;44.30;20.05;;;7.60;85.90;;;;;;1904964;75;21023;-48
2022/03/26 07:29:13;;;;;;;39.53;20.08;;;7.60;85.70;;;;;;1905058;75;21082;-49
2022/03/26 07:31:43;;;;;;;37.98;19.23;;;7.70;85.60;;;;;;1904998;75;21006;-50
2022/03/26 07:34:13;;;;;;;38.23;18.35;;;7.80;85.70;;;;;;1905187;75;21092;-51
2022/03/26 07:36:43;;;;;;;44.35;20.45;;;7.80;85.60;;;;;;1905058;75;21461;-50
2022/03/26 07:39:12;;;;;;;42.13;19.15;;;7.90;85.50;;;;;;1904780;75;21022;-49
2022/03/26 07:41:42;;;;;;;42.75;20.52;;;8.00;85.20;;;;;;1908718;74;21027;-49
2022/03/26 07:44:12;;;;;;;37.78;18.52;;;8.00;85.00;;;;;;1904934;75;21007;-52
2022/03/26 07:46:41;;;;;;;29.27;16.67;;;8.00;84.20;;;;;;1904958;75;21039;-49
2022/03/26 07:49:10;;;;;;;33.95;17.77;;;8.10;84.60;;;;;;1904917;75;21018;-50
2022/03/26 07:51:40;;;;;;;37.10;18.17;;;8.10;85.00;;;;;;1904926;75;21030;-49
2022/03/26 07:54:09;;;;;;;35.95;17.85;;;8.10;84.90;;;;;;1904885;75;21100;-51
2022/03/26 07:56:39;;;;;;;31.82;16.97;;;8.20;85.10;;;;;;1901331;75;21568;-48
2022/03/26 07:59:08;;;;;;;35.25;18.60;;;8.30;85.00;;;;;;1877279;75;21054;-50
2022/03/26 08:01:37;;;;;;;34.00;18.80;;;8.40;85.20;;;;;;1870824;75;21140;-52
2022/03/26 08:04:07;;;;;;;38.33;18.48;;;8.60;85.00;;;;;;1867097;76;21058;-54
2022/03/26 08:06:37;;;;;;;28.25;16.67;;;8.70;84.00;;;;;;1871234;76;21094;-48
2022/03/26 08:09:06;;;;;;;33.20;17.87;;;8.70;83.90;;;;;;1869788;75;21101;-50
2022/03/26 08:11:35;;;;;;;32.53;17.92;;;8.70;83.50;;;;;;1878446;75;21051;-51
2022/03/26 08:14:05;;;;;;;36.23;18.98;;;8.70;82.90;;;;;;1889552;76;21071;-51
2022/03/26 08:16:34;;;;;;;38.88;19.23;;;8.70;83.30;;;;;;1888989;76;21050;-53
2022/03/26 08:19:04;;;;;;;32.75;18.45;;;8.70;83.30;;;;;;1887734;75;21011;-53
2022/03/26 08:21:35;;;;;;;30.65;15.85;;;8.70;82.20;;;;;;1870420;76;21011;-52
2022/03/26 08:24:04;;;;;;;31.30;18.45;;;8.60;82.70;;;;;;1881643;75;21097;-56
2022/03/26 08:26:33;;;;;;;29.60;16.57;;;8.60;82.70;;;;;;1879865;75;21046;-49
2022/03/26 08:29:03;;;;;;;36.83;17.23;;;8.60;81.70;;;;;;1891938;75;21124;-51
2022/03/26 08:31:33;;;;;;;32.30;18.27;;;8.60;82.50;;;;;;1898514;75;21047;-54
2022/03/26 08:34:02;;;;;;;35.03;18.62;;;8.50;81.60;;;;;;1904421;75;21100;-52
2022/03/26 08:36:31;;;;;;;33.15;19.42;;;8.50;81.50;;;;;;1904527;75;21085;-54
2022/03/26 08:39:01;;;;;;;29.60;17.17;;;8.50;81.50;;;;;;1904408;75;21272;-55
2022/03/26 08:41:31;;;;;;;28.90;17.35;;;8.50;81.70;;;;;;1904413;75;21077;-54
2022/03/26 08:44:00;;;;;;;34.83;18.17;;;8.50;82.10;;;;;;1904326;75;21015;-50
2022/03/26 08:46:30;;;;;;;31.02;17.60;;;8.60;82.30;;;;;;1901785;75;21063;-54
2022/03/26 08:48:59;;;;;;;29.32;17.55;;;8.70;81.30;;;;;;1881595;75;21132;-53
2022/03/26 08:51:28;;;;;;;33.28;19.10;;;8.70;81.60;;;;;;1871955;77;21047;-48
2022/03/26 08:53:58;;;;;;;26.52;16.15;;;8.70;81.60;;;;;;1871659;75;21110;-58
2022/03/26 08:56:27;;;;;;;31.68;18.42;;;8.80;81.60;;;;;;1879494;76;21094;-58
2022/03/26 08:58:57;;;;;;;29.02;17.05;;;8.80;81.60;;;;;;1868370;77;21011;-59
2022/03/26 09:01:27;;;;;;;22.00;14.20;;;8.80;81.70;;;;;;1868492;76;21067;-58
2022/03/26 09:03:56;;;;;;;27.35;15.45;;;8.90;82.00;;;;;;1868494;77;21059;-58
2022/03/26 09:06:25;;;;;;;34.20;17.17;;;8.90;80.60;;;;;;1868489;76;21015;-58
2022/03/26 09:08:54;;;;;;;34.70;19.98;;;9.00;81.40;;;;;;1868363;76;21030;-58
2022/03/26 09:11:24;;;;;;;42.93;25.02;;;9.00;81.60;;;;;;1868477;77;21031;-58
2022/03/26 09:13:53;;;;;;;30.57;18.15;;;9.10;81.80;;;;;;1868455;77;21039;-58
2022/03/26 09:16:23;;;;;;;31.68;16.82;;;9.20;80.70;;;;;;1868560;77;21047;-59
2022/03/26 09:18:52;;;;;;;27.25;16.40;;;9.20;80.20;;;;;;1868347;76;21034;-59
2022/03/26 09:21:21;;;;;;;29.40;18.23;;;9.30;80.90;;;;;;1868339;76;21039;-58
2022/03/26 09:23:51;;;;;;;28.05;16.17;;;9.30;79.50;;;;;;1868284;76;21105;-58
2022/03/26 09:26:20;;;;;;;33.40;16.67;;;9.30;80.60;;;;;;1868472;77;21071;-58
2022/03/26 09:28:50;;;;;;;28.98;16.17;;;9.40;80.70;;;;;;1868303;77;21050;-58
2022/03/26 09:31:19;;;;;;;42.43;16.25;;;9.50;80.60;;;;;;1868378;77;21023;-58
2022/03/26 09:33:49;;;;;;;29.95;16.15;;;9.60;80.90;;;;;;1868426;77;21102;-58
2022/03/26 09:36:19;;;;;;;25.82;16.93;;;9.80;80.30;;;;;;1869761;76;21035;-58
2022/03/26 09:38:48;;;;;;;27.20;16.48;;;9.90;79.70;;;;;;1868367;77;21093;-58
2022/03/26 09:41:18;;;;;;;30.88;16.45;;;10.00;80.20;;;;;;1868300;77;21054;-58
2022/03/26 09:43:47;;;;;;;23.67;13.83;;;10.10;80.10;;;;;;1868393;77;21039;-58
2022/03/26 09:46:17;;;;;;;20.40;13.18;;;10.10;79.40;;;;;;1868378;77;21035;-58
2022/03/26 09:48:46;;;;;;;21.00;13.68;;;10.20;80.00;;;;;;1868307;77;21101;-58
2022/03/26 09:51:16;;;;;;;18.65;12.15;;;10.40;78.40;;;;;;1868317;77;21039;-58
2022/03/26 09:53:46;;;;;;;39.58;25.90;;;10.40;78.80;;;;;;1868405;77;21039;-58
2022/03/26 09:56:16;;;;;;;15.72;12.10;;;10.50;77.90;;;;;;1868328;77;21051;-58
2022/03/26 09:58:45;;;;;;;22.00;12.30;;;10.60;77.20;;;;;;1868449;77;21034;-58
2022/03/26 10:01:15;;;;;;;20.45;11.08;;;10.60;77.00;;;;;;1868324;76;21058;-58
2022/03/26 10:04:04;;;;;;;11.90;9.18;;;10.70;76.70;;;;;;1868410;77;21015;-58
2022/03/26 10:06:34;;;;;;;14.30;9.53;;;10.80;77.10;;;;;;1868272;77;21109;-58
2022/03/26 10:09:03;;;;;;;15.35;9.98;;;10.80;77.10;;;;;;1868346;77;21031;-58
2022/03/26 10:11:36;;;;;;;15.10;8.75;;;10.90;76.70;;;;;;1868434;77;21042;-58
2022/03/26 10:14:05;;;;;;;13.65;8.80;;;10.90;76.60;;;;;;1868437;77;21105;-58
2022/03/26 10:16:35;;;;;;;12.35;8.50;;;11.00;76.00;;;;;;1868462;77;21031;-58
2022/03/26 10:19:05;;;;;;;11.65;7.85;;;11.10;76.20;;;;;;1868433;77;21035;-58
2022/03/26 10:21:35;;;;;;;11.75;8.15;;;11.10;75.00;;;;;;1868347;77;21038;-58
2022/03/26 10:24:06;;;;;;;10.10;7.45;;;11.20;75.00;;;;;;1868293;77;21039;-58
2022/03/26 10:26:36;;;;;;;12.88;8.70;;;11.20;75.10;;;;;;1868461;77;21026;-58
2022/03/26 10:29:05;;;;;;;10.80;7.53;;;11.30;74.60;;;;;;1868366;77;21101;-58
2022/03/26 10:34:22;;;;;;;8.90;7.25;;;11.40;74.60;;;;;;1868450;77;21047;-58
2022/03/26 10:37:01;;;;;;;11.03;7.50;;;11.50;69.70;;;;;;1868289;77;21043;-58
2022/03/26 10:39:51;;;;;;;11.57;8.45;;;11.40;69.40;;;;;;1868567;77;21055;-58
2022/03/26 10:42:21;;;;;;;9.78;7.42;;;11.30;71.90;;;;;;1790709;80;21139;-58
2022/03/26 10:44:52;;;;;;;11.80;8.45;;;11.40;69.40;;;;;;1789521;80;21041;-57
2022/03/26 10:47:21;;;;;;;19.05;10.10;;;11.30;68.60;;;;;;1790781;80;21127;-57
2022/03/26 10:49:51;;;;;;;21.40;14.95;;;11.30;69.70;;;;;;1790814;79;21123;-57
2022/03/26 10:52:20;;;;;;;14.63;9.60;;;11.30;70.00;;;;;;1790758;80;21053;-58
2022/03/26 10:54:50;;;;;;;15.95;10.72;;;11.30;70.60;;;;;;1790785;80;21049;-58
2022/03/26 10:57:24;;;;;;;11.30;8.00;;;11.20;69.60;;;;;;1790714;80;21029;-58
2022/03/26 10:59:54;;;;;;;14.43;8.43;;;11.20;70.10;;;;;;1790927;80;21021;-58
2022/03/26 11:02:23;;;;;;;16.15;9.08;;;11.20;70.70;;;;;;1790748;80;21084;-57
2022/03/26 11:04:53;;;;;;;24.37;9.60;;;11.20;70.90;;;;;;1790748;79;21053;-58
2022/03/26 11:07:23;;;;;;;15.10;9.80;;;11.30;70.70;;;;;;1790904;80;21162;-58
2022/03/26 11:09:52;;;;;;;15.28;10.03;;;11.30;70.60;;;;;;1790758;80;21092;-58
2022/03/26 11:12:22;;;;;;;25.52;10.53;;;11.20;70.60;;;;;;1790847;80;21566;-58
2022/03/26 11:14:54;;;;;;;15.20;8.90;;;11.20;68.80;;;;;;1790891;79;21123;-58
2022/03/26 11:17:42;;;;;;;14.70;8.75;;;11.20;69.60;;;;;;1790763;80;21176;-57
2022/03/26 11:20:14;;;;;;;14.25;8.38;;;11.10;68.80;;;;;;1790795;80;21048;-58
2022/03/26 11:22:49;;;;;;;14.73;9.00;;;11.00;69.40;;;;;;1790723;79;21471;-58
2022/03/26 11:25:49;;;;;;;13.95;10.10;;;11.00;69.50;;;;;;1791043;80;21107;-58
2022/03/26 11:28:27;;;;;;;14.63;9.80;;;10.90;69.60;;;;;;1790776;80;21060;-58
2022/03/26 11:31:11;;;;;;;15.20;9.00;;;10.80;69.90;;;;;;1789867;80;21147;-58
2022/03/26 11:33:40;;;;;;;15.83;8.88;;;10.70;70.60;;;;;;1790299;80;21479;-58
2022/03/26 11:36:10;;;;;;;20.37;10.43;;;10.80;71.20;;;;;;1790784;80;21053;-58
2022/03/26 11:38:39;;;;;;;14.05;8.75;;;10.80;71.30;;;;;;1790800;79;21053;-58
2022/03/26 11:41:09;;;;;;;11.35;8.63;;;10.90;71.60;;;;;;1790763;80;21057;-58
2022/03/26 11:43:47;;;;;;;14.10;9.35;;;10.90;71.60;;;;;;1790877;80;21138;-58
2022/03/26 11:52:25;;;;;;;16.23;9.15;;;11.00;71.60;;;;;;1790921;79;21080;-57
2022/03/26 11:55:06;;;;;;;12.98;9.65;;;11.00;71.60;;;;;;1790884;80;21136;-58
2022/03/26 11:57:35;;;;;;;11.15;8.15;;;11.00;71.00;;;;;;1789781;80;21148;-58
2022/03/26 12:00:19;;;;;;;11.15;7.62;;;11.00;71.40;;;;;;1790745;80;21053;-58
2022/03/26 12:02:53;;;;;;;9.93;7.03;;;10.90;70.60;;;;;;1790758;80;21036;-58
2022/03/26 12:08:19;;;;;;;10.63;6.42;;;10.80;71.20;;;;;;1790809;80;21077;-57
2022/03/26 12:10:48;;;;;;;10.43;6.65;;;10.80;71.70;;;;;;1790762;80;21110;-58
2022/03/26 12:13:22;;;;;;;11.48;8.25;;;10.70;71.10;;;;;;1790715;79;21048;-58
2022/03/26 12:16:03;;;;;;;12.67;8.77;;;10.80;71.00;;;;;;1791083;80;21142;-58
2022/03/26 12:18:35;;;;;;;13.13;9.33;;;10.80;71.30;;;;;;1790780;80;21112;-57
2022/03/26 12:21:22;;;;;;;11.57;8.85;;;10.90;71.40;;;;;;1789981;79;21123;-58
2022/03/26 12:23:54;;;;;;;16.85;10.13;;;11.00;71.60;;;;;;1790756;80;21491;-57
2022/03/26 12:26:24;;;;;;;13.90;11.22;;;11.10;71.40;;;;;;1790685;80;21155;-57
2022/03/26 12:28:53;;;;;;;11.50;8.00;;;11.10;70.90;;;;;;1790720;80;21162;-57
2022/03/26 12:31:24;;;;;;;13.30;7.83;;;11.10;70.00;;;;;;1790790;79;21119;-58
2022/03/26 12:33:54;;;;;;;8.60;7.00;;;11.10;69.40;;;;;;1790880;80;21589;-58
2022/03/26 12:36:23;;;;;;;15.03;8.48;;;11.10;70.60;;;;;;1790745;80;21119;-57
2022/03/26 12:38:55;;;;;;;20.75;8.53;;;11.20;70.80;;;;;;1790769;80;21100;-57
2022/03/26 12:41:24;;;;;;;11.95;7.17;;;11.30;70.10;;;;;;1790704;79;21052;-57
2022/03/26 12:43:57;;;;;;;10.40;7.10;;;11.30;70.30;;;;;;1790675;80;21100;-57
2022/03/26 12:46:38;;;;;;;10.53;7.08;;;11.40;69.90;;;;;;1790827;80;21573;-58
2022/03/26 12:49:10;;;;;;;9.30;6.85;;;11.30;69.60;;;;;;1790831;80;21111;-57
2022/03/26 12:51:39;;;;;;;7.53;6.50;;;11.30;67.50;;;;;;1789945;79;21518;-57
2022/03/26 12:54:08;;;;;;;14.47;7.22;;;11.10;67.80;;;;;;1790696;80;21057;-57
2022/03/26 12:56:37;;;;;;;13.75;7.40;;;11.00;67.80;;;;;;1790858;79;21073;-57
2022/03/26 12:59:07;;;;;;;15.55;7.53;;;11.00;68.40;;;;;;1790861;80;21127;-57
2022/03/26 13:01:36;;;;;;;13.05;7.33;;;10.90;68.60;;;;;;1790891;79;21052;-57